sensor_id;sensor_type;location;lat;lon;timestamp;P1;durP1;ratioP1;P2;durP2;ratioP2
8626;SDS011;4351;51.422;6.794;2024-02-16T00:01:08;3.60;;;1.40;;
8626;SDS011;4351;51.422;6.794;2024-02-16T00:03:36;4.37;;;2.03;;
8626;SDS011;4351;51.422;6.794;2024-02-16T00:06:04;5.83;;;1.60;;
8626;SDS011;4351;51.422;6.794;2024-02-16T00:08:33;3.80;;;2.00;;
8626;SDS011;4351;51.422;6.794;2024-02-16T00:11:05;4.13;;;1.70;;
8626;SDS011;4351;51.422;6.794;2024-02-16T00:13:32;3.67;;;1.70;;
8626;SDS011;4351;51.422;6.794;2024-02-16T00:16:00;2.97;;;1.53;;
8626;SDS011;4351;51.422;6.794;2024-02-16T00:18:29;3.27;;;1.40;;
8626;SDS011;4351;51.422;6.794;2024-02-16T00:20:57;3.80;;;1.90;;
8626;SDS011;4351;51.422;6.794;2024-02-16T00:23:25;4.57;;;1.80;;
8626;SDS011;4351;51.422;6.794;2024-02-16T00:25:53;2.03;;;1.40;;
8626;SDS011;4351;51.422;6.794;2024-02-16T00:28:20;4.53;;;1.80;;
8626;SDS011;4351;51.422;6.794;2024-02-16T00:30:48;2.63;;;1.67;;
8626;SDS011;4351;51.422;6.794;2024-02-16T00:33:15;3.23;;;1.87;;
8626;SDS011;4351;51.422;6.794;2024-02-16T00:35:45;2.63;;;1.43;;
8626;SDS011;4351;51.422;6.794;2024-02-16T00:38:15;6.40;;;1.80;;
8626;SDS011;4351;51.422;6.794;2024-02-16T00:40:43;4.13;;;1.60;;
8626;SDS011;4351;51.422;6.794;2024-02-16T00:43:11;2.97;;;1.50;;
8626;SDS011;4351;51.422;6.794;2024-02-16T00:45:38;4.07;;;2.03;;
8626;SDS011;4351;51.422;6.794;2024-02-16T00:48:07;4.10;;;1.80;;
8626;SDS011;4351;51.422;6.794;2024-02-16T00:50:35;3.60;;;1.80;;
8626;SDS011;4351;51.422;6.794;2024-02-16T00:53:04;4.53;;;1.87;;
8626;SDS011;4351;51.422;6.794;2024-02-16T00:55:32;3.27;;;1.63;;
8626;SDS011;4351;51.422;6.794;2024-02-16T00:58:00;3.03;;;1.60;;
8626;SDS011;4351;51.422;6.794;2024-02-16T01:00:28;3.77;;;1.93;;
8626;SDS011;4351;51.422;6.794;2024-02-16T01:02:56;3.97;;;1.90;;
8626;SDS011;4351;51.422;6.794;2024-02-16T01:05:24;3.77;;;1.80;;
8626;SDS011;4351;51.422;6.794;2024-02-16T01:07:51;2.63;;;1.53;;
8626;SDS011;4351;51.422;6.794;2024-02-16T01:10:21;3.67;;;1.73;;
8626;SDS011;4351;51.422;6.794;2024-02-16T01:12:49;2.37;;;1.60;;
8626;SDS011;4351;51.422;6.794;2024-02-16T01:15:19;3.53;;;1.80;;
8626;SDS011;4351;51.422;6.794;2024-02-16T01:17:47;4.13;;;1.90;;
8626;SDS011;4351;51.422;6.794;2024-02-16T01:20:15;4.70;;;1.80;;
8626;SDS011;4351;51.422;6.794;2024-02-16T01:22:43;4.00;;;1.60;;
8626;SDS011;4351;51.422;6.794;2024-02-16T01:25:11;5.63;;;1.87;;
8626;SDS011;4351;51.422;6.794;2024-02-16T01:27:40;5.00;;;1.90;;
8626;SDS011;4351;51.422;6.794;2024-02-16T01:30:08;4.33;;;1.70;;
8626;SDS011;4351;51.422;6.794;2024-02-16T01:32:36;2.73;;;1.80;;
8626;SDS011;4351;51.422;6.794;2024-02-16T01:35:04;4.03;;;1.87;;
8626;SDS011;4351;51.422;6.794;2024-02-16T01:37:32;3.10;;;1.53;;
8626;SDS011;4351;51.422;6.794;2024-02-16T01:40:00;3.40;;;1.40;;
8626;SDS011;4351;51.422;6.794;2024-02-16T01:42:29;4.87;;;1.90;;
8626;SDS011;4351;51.422;6.794;2024-02-16T01:44:59;3.63;;;1.70;;
8626;SDS011;4351;51.422;6.794;2024-02-16T01:47:27;2.53;;;1.53;;
8626;SDS011;4351;51.422;6.794;2024-02-16T01:49:55;2.60;;;1.63;;
8626;SDS011;4351;51.422;6.794;2024-02-16T01:52:23;3.37;;;1.83;;
8626;SDS011;4351;51.422;6.794;2024-02-16T01:54:50;4.70;;;1.77;;
8626;SDS011;4351;51.422;6.794;2024-02-16T01:57:19;4.20;;;2.30;;
8626;SDS011;4351;51.422;6.794;2024-02-16T01:59:47;4.80;;;1.90;;
8626;SDS011;4351;51.422;6.794;2024-02-16T02:02:17;3.60;;;1.80;;
8626;SDS011;4351;51.422;6.794;2024-02-16T02:04:45;4.40;;;1.90;;
8626;SDS011;4351;51.422;6.794;2024-02-16T02:07:13;3.83;;;1.87;;
8626;SDS011;4351;51.422;6.794;2024-02-16T02:09:41;2.70;;;1.73;;
8626;SDS011;4351;51.422;6.794;2024-02-16T02:12:09;3.67;;;1.93;;
8626;SDS011;4351;51.422;6.794;2024-02-16T02:14:37;6.13;;;1.80;;
8626;SDS011;4351;51.422;6.794;2024-02-16T02:17:05;3.20;;;1.63;;
8626;SDS011;4351;51.422;6.794;2024-02-16T02:19:34;5.53;;;2.10;;
8626;SDS011;4351;51.422;6.794;2024-02-16T02:22:03;5.03;;;1.93;;
8626;SDS011;4351;51.422;6.794;2024-02-16T02:24:32;5.90;;;2.03;;
8626;SDS011;4351;51.422;6.794;2024-02-16T02:27:00;6.40;;;2.07;;
8626;SDS011;4351;51.422;6.794;2024-02-16T02:29:29;4.77;;;2.07;;
8626;SDS011;4351;51.422;6.794;2024-02-16T02:31:57;5.23;;;1.90;;
8626;SDS011;4351;51.422;6.794;2024-02-16T02:34:25;5.87;;;1.93;;
8626;SDS011;4351;51.422;6.794;2024-02-16T02:36:53;4.67;;;1.87;;
8626;SDS011;4351;51.422;6.794;2024-02-16T02:39:21;3.37;;;1.70;;
8626;SDS011;4351;51.422;6.794;2024-02-16T02:41:50;3.37;;;1.60;;
8626;SDS011;4351;51.422;6.794;2024-02-16T02:44:18;4.27;;;1.70;;
8626;SDS011;4351;51.422;6.794;2024-02-16T02:46:46;4.50;;;2.10;;
8626;SDS011;4351;51.422;6.794;2024-02-16T02:49:13;4.30;;;1.80;;
8626;SDS011;4351;51.422;6.794;2024-02-16T02:51:41;4.47;;;1.80;;
8626;SDS011;4351;51.422;6.794;2024-02-16T02:54:09;3.10;;;1.73;;
8626;SDS011;4351;51.422;6.794;2024-02-16T02:56:37;3.47;;;1.93;;
8626;SDS011;4351;51.422;6.794;2024-02-16T02:59:06;2.77;;;1.80;;
8626;SDS011;4351;51.422;6.794;2024-02-16T03:01:34;3.90;;;1.90;;
8626;SDS011;4351;51.422;6.794;2024-02-16T03:04:02;2.67;;;1.60;;
8626;SDS011;4351;51.422;6.794;2024-02-16T03:06:30;3.30;;;1.90;;
8626;SDS011;4351;51.422;6.794;2024-02-16T03:08:58;5.10;;;1.80;;
8626;SDS011;4351;51.422;6.794;2024-02-16T03:11:26;2.93;;;1.70;;
8626;SDS011;4351;51.422;6.794;2024-02-16T03:13:53;3.87;;;1.67;;
8626;SDS011;4351;51.422;6.794;2024-02-16T03:16:22;5.07;;;1.70;;
8626;SDS011;4351;51.422;6.794;2024-02-16T03:18:50;3.53;;;1.80;;
8626;SDS011;4351;51.422;6.794;2024-02-16T03:21:18;3.40;;;1.97;;
8626;SDS011;4351;51.422;6.794;2024-02-16T03:23:47;3.13;;;1.70;;
8626;SDS011;4351;51.422;6.794;2024-02-16T03:26:15;4.80;;;2.00;;
8626;SDS011;4351;51.422;6.794;2024-02-16T03:28:43;3.77;;;1.93;;
8626;SDS011;4351;51.422;6.794;2024-02-16T03:31:19;5.97;;;2.00;;
8626;SDS011;4351;51.422;6.794;2024-02-16T03:33:49;3.27;;;1.80;;
8626;SDS011;4351;51.422;6.794;2024-02-16T03:36:18;3.47;;;2.10;;
8626;SDS011;4351;51.422;6.794;2024-02-16T03:38:48;4.50;;;1.93;;
8626;SDS011;4351;51.422;6.794;2024-02-16T03:41:18;3.23;;;1.73;;
8626;SDS011;4351;51.422;6.794;2024-02-16T03:43:46;3.93;;;2.03;;
8626;SDS011;4351;51.422;6.794;2024-02-16T03:46:14;3.53;;;1.87;;
8626;SDS011;4351;51.422;6.794;2024-02-16T03:48:41;4.70;;;2.07;;
8626;SDS011;4351;51.422;6.794;2024-02-16T03:51:13;3.80;;;1.73;;
8626;SDS011;4351;51.422;6.794;2024-02-16T03:53:41;4.17;;;1.87;;
8626;SDS011;4351;51.422;6.794;2024-02-16T03:56:08;3.30;;;1.80;;
8626;SDS011;4351;51.422;6.794;2024-02-16T03:58:36;4.53;;;2.13;;
8626;SDS011;4351;51.422;6.794;2024-02-16T04:01:04;4.93;;;1.93;;
8626;SDS011;4351;51.422;6.794;2024-02-16T04:03:33;3.53;;;1.97;;
8626;SDS011;4351;51.422;6.794;2024-02-16T04:06:01;3.67;;;1.80;;
8626;SDS011;4351;51.422;6.794;2024-02-16T04:08:32;3.63;;;2.00;;
8626;SDS011;4351;51.422;6.794;2024-02-16T04:11:00;4.40;;;2.10;;
8626;SDS011;4351;51.422;6.794;2024-02-16T04:13:29;4.60;;;1.97;;
8626;SDS011;4351;51.422;6.794;2024-02-16T04:15:59;4.80;;;2.00;;
8626;SDS011;4351;51.422;6.794;2024-02-16T04:18:27;7.27;;;2.07;;
8626;SDS011;4351;51.422;6.794;2024-02-16T04:20:54;4.53;;;2.00;;
8626;SDS011;4351;51.422;6.794;2024-02-16T04:23:23;2.60;;;1.70;;
8626;SDS011;4351;51.422;6.794;2024-02-16T04:25:52;4.67;;;2.03;;
8626;SDS011;4351;51.422;6.794;2024-02-16T04:28:20;4.67;;;2.20;;
8626;SDS011;4351;51.422;6.794;2024-02-16T04:30:47;2.73;;;1.90;;
8626;SDS011;4351;51.422;6.794;2024-02-16T04:33:15;4.27;;;2.00;;
8626;SDS011;4351;51.422;6.794;2024-02-16T04:35:43;5.93;;;2.07;;
8626;SDS011;4351;51.422;6.794;2024-02-16T04:38:13;5.77;;;2.20;;
8626;SDS011;4351;51.422;6.794;2024-02-16T04:40:41;6.23;;;2.10;;
8626;SDS011;4351;51.422;6.794;2024-02-16T04:43:10;3.60;;;1.90;;
8626;SDS011;4351;51.422;6.794;2024-02-16T04:45:38;3.87;;;2.20;;
8626;SDS011;4351;51.422;6.794;2024-02-16T04:48:06;3.37;;;2.00;;
8626;SDS011;4351;51.422;6.794;2024-02-16T04:50:34;3.60;;;1.90;;
8626;SDS011;4351;51.422;6.794;2024-02-16T04:53:02;3.37;;;2.00;;
8626;SDS011;4351;51.422;6.794;2024-02-16T04:55:30;2.80;;;1.70;;
8626;SDS011;4351;51.422;6.794;2024-02-16T04:57:58;4.63;;;2.20;;
8626;SDS011;4351;51.422;6.794;2024-02-16T05:00:27;6.73;;;1.87;;
8626;SDS011;4351;51.422;6.794;2024-02-16T05:02:55;6.20;;;2.17;;
8626;SDS011;4351;51.422;6.794;2024-02-16T05:05:22;2.97;;;1.83;;
8626;SDS011;4351;51.422;6.794;2024-02-16T05:07:51;3.00;;;1.90;;
8626;SDS011;4351;51.422;6.794;2024-02-16T05:10:18;4.20;;;1.90;;
8626;SDS011;4351;51.422;6.794;2024-02-16T05:12:46;5.70;;;1.93;;
8626;SDS011;4351;51.422;6.794;2024-02-16T05:15:14;3.93;;;1.87;;
8626;SDS011;4351;51.422;6.794;2024-02-16T05:17:46;4.83;;;2.17;;
8626;SDS011;4351;51.422;6.794;2024-02-16T05:20:14;5.37;;;1.97;;
8626;SDS011;4351;51.422;6.794;2024-02-16T05:22:43;3.23;;;1.60;;
8626;SDS011;4351;51.422;6.794;2024-02-16T05:25:12;5.23;;;2.00;;
8626;SDS011;4351;51.422;6.794;2024-02-16T05:27:40;4.10;;;2.20;;
8626;SDS011;4351;51.422;6.794;2024-02-16T05:30:09;5.70;;;2.30;;
8626;SDS011;4351;51.422;6.794;2024-02-16T05:32:37;6.53;;;1.97;;
8626;SDS011;4351;51.422;6.794;2024-02-16T05:35:07;4.10;;;2.37;;
8626;SDS011;4351;51.422;6.794;2024-02-16T05:37:38;6.30;;;2.40;;
8626;SDS011;4351;51.422;6.794;2024-02-16T05:40:07;5.13;;;2.10;;
8626;SDS011;4351;51.422;6.794;2024-02-16T05:42:45;5.67;;;2.03;;
8626;SDS011;4351;51.422;6.794;2024-02-16T05:45:13;4.60;;;2.10;;
8626;SDS011;4351;51.422;6.794;2024-02-16T05:47:41;4.90;;;2.00;;
8626;SDS011;4351;51.422;6.794;2024-02-16T05:50:13;6.53;;;2.70;;
8626;SDS011;4351;51.422;6.794;2024-02-16T05:52:41;4.20;;;2.17;;
8626;SDS011;4351;51.422;6.794;2024-02-16T05:55:10;5.73;;;2.20;;
8626;SDS011;4351;51.422;6.794;2024-02-16T05:57:39;5.67;;;2.23;;
8626;SDS011;4351;51.422;6.794;2024-02-16T06:00:08;4.40;;;2.13;;
8626;SDS011;4351;51.422;6.794;2024-02-16T06:02:37;3.83;;;2.30;;
8626;SDS011;4351;51.422;6.794;2024-02-16T06:05:05;7.57;;;2.60;;
8626;SDS011;4351;51.422;6.794;2024-02-16T06:07:34;4.13;;;2.20;;
8626;SDS011;4351;51.422;6.794;2024-02-16T06:10:05;4.20;;;2.20;;
8626;SDS011;4351;51.422;6.794;2024-02-16T06:12:37;5.93;;;2.30;;
8626;SDS011;4351;51.422;6.794;2024-02-16T06:15:06;4.30;;;2.27;;
8626;SDS011;4351;51.422;6.794;2024-02-16T06:17:34;5.07;;;2.10;;
8626;SDS011;4351;51.422;6.794;2024-02-16T06:20:03;5.80;;;2.43;;
8626;SDS011;4351;51.422;6.794;2024-02-16T06:22:32;5.90;;;2.20;;
8626;SDS011;4351;51.422;6.794;2024-02-16T06:25:01;4.03;;;2.53;;
8626;SDS011;4351;51.422;6.794;2024-02-16T06:27:29;3.07;;;2.00;;
8626;SDS011;4351;51.422;6.794;2024-02-16T06:29:57;7.03;;;2.70;;
8626;SDS011;4351;51.422;6.794;2024-02-16T06:32:25;4.77;;;2.60;;
8626;SDS011;4351;51.422;6.794;2024-02-16T06:34:54;6.90;;;2.37;;
8626;SDS011;4351;51.422;6.794;2024-02-16T06:37:22;4.20;;;2.27;;
8626;SDS011;4351;51.422;6.794;2024-02-16T06:39:51;4.83;;;2.50;;
8626;SDS011;4351;51.422;6.794;2024-02-16T06:42:20;6.33;;;2.60;;
8626;SDS011;4351;51.422;6.794;2024-02-16T06:44:48;5.30;;;2.27;;
8626;SDS011;4351;51.422;6.794;2024-02-16T06:47:16;4.67;;;2.30;;
8626;SDS011;4351;51.422;6.794;2024-02-16T06:49:45;3.80;;;2.07;;
8626;SDS011;4351;51.422;6.794;2024-02-16T06:52:13;6.10;;;2.30;;
8626;SDS011;4351;51.422;6.794;2024-02-16T06:54:42;5.53;;;2.80;;
8626;SDS011;4351;51.422;6.794;2024-02-16T06:57:09;4.50;;;2.60;;
8626;SDS011;4351;51.422;6.794;2024-02-16T06:59:40;6.87;;;2.43;;
8626;SDS011;4351;51.422;6.794;2024-02-16T07:02:08;3.13;;;2.40;;
8626;SDS011;4351;51.422;6.794;2024-02-16T07:04:39;5.30;;;2.43;;
8626;SDS011;4351;51.422;6.794;2024-02-16T07:07:07;4.03;;;2.30;;
8626;SDS011;4351;51.422;6.794;2024-02-16T07:09:35;8.23;;;2.80;;
8626;SDS011;4351;51.422;6.794;2024-02-16T07:12:03;6.90;;;2.57;;
8626;SDS011;4351;51.422;6.794;2024-02-16T07:14:33;6.47;;;2.60;;
8626;SDS011;4351;51.422;6.794;2024-02-16T07:17:03;4.33;;;2.23;;
8626;SDS011;4351;51.422;6.794;2024-02-16T07:19:33;8.57;;;2.97;;
8626;SDS011;4351;51.422;6.794;2024-02-16T07:22:01;5.33;;;2.60;;
8626;SDS011;4351;51.422;6.794;2024-02-16T07:24:29;6.00;;;3.10;;
8626;SDS011;4351;51.422;6.794;2024-02-16T07:26:57;5.70;;;2.20;;
8626;SDS011;4351;51.422;6.794;2024-02-16T07:29:26;5.20;;;2.50;;
8626;SDS011;4351;51.422;6.794;2024-02-16T07:31:54;4.73;;;2.63;;
8626;SDS011;4351;51.422;6.794;2024-02-16T07:34:24;5.40;;;2.40;;
8626;SDS011;4351;51.422;6.794;2024-02-16T07:36:51;3.63;;;2.33;;
8626;SDS011;4351;51.422;6.794;2024-02-16T07:39:19;5.73;;;2.53;;
8626;SDS011;4351;51.422;6.794;2024-02-16T07:41:49;5.80;;;3.03;;
8626;SDS011;4351;51.422;6.794;2024-02-16T07:44:16;5.30;;;2.50;;
8626;SDS011;4351;51.422;6.794;2024-02-16T07:46:44;5.27;;;2.87;;
8626;SDS011;4351;51.422;6.794;2024-02-16T07:49:12;7.10;;;2.40;;
8626;SDS011;4351;51.422;6.794;2024-02-16T07:51:42;7.20;;;2.50;;
8626;SDS011;4351;51.422;6.794;2024-02-16T07:54:11;5.17;;;2.70;;
8626;SDS011;4351;51.422;6.794;2024-02-16T07:56:39;5.77;;;2.60;;
8626;SDS011;4351;51.422;6.794;2024-02-16T07:59:07;6.67;;;2.40;;
8626;SDS011;4351;51.422;6.794;2024-02-16T08:01:35;5.03;;;2.23;;
8626;SDS011;4351;51.422;6.794;2024-02-16T08:04:06;5.20;;;2.57;;
8626;SDS011;4351;51.422;6.794;2024-02-16T08:06:34;6.20;;;2.50;;
8626;SDS011;4351;51.422;6.794;2024-02-16T08:09:04;4.97;;;2.70;;
8626;SDS011;4351;51.422;6.794;2024-02-16T08:11:32;5.43;;;2.83;;
8626;SDS011;4351;51.422;6.794;2024-02-16T08:14:00;8.13;;;2.60;;
8626;SDS011;4351;51.422;6.794;2024-02-16T08:16:28;5.93;;;2.30;;
8626;SDS011;4351;51.422;6.794;2024-02-16T08:18:56;5.17;;;2.60;;
8626;SDS011;4351;51.422;6.794;2024-02-16T08:21:24;8.23;;;2.90;;
8626;SDS011;4351;51.422;6.794;2024-02-16T08:23:52;7.83;;;2.60;;
8626;SDS011;4351;51.422;6.794;2024-02-16T08:26:21;5.33;;;2.50;;
8626;SDS011;4351;51.422;6.794;2024-02-16T08:28:48;5.27;;;2.47;;
8626;SDS011;4351;51.422;6.794;2024-02-16T08:31:17;6.93;;;2.60;;
8626;SDS011;4351;51.422;6.794;2024-02-16T08:33:45;8.10;;;2.63;;
8626;SDS011;4351;51.422;6.794;2024-02-16T08:36:14;5.77;;;2.83;;
8626;SDS011;4351;51.422;6.794;2024-02-16T08:38:42;4.70;;;2.67;;
8626;SDS011;4351;51.422;6.794;2024-02-16T08:41:10;4.50;;;2.40;;
8626;SDS011;4351;51.422;6.794;2024-02-16T08:43:39;10.07;;;2.90;;
8626;SDS011;4351;51.422;6.794;2024-02-16T08:46:07;7.10;;;2.60;;
8626;SDS011;4351;51.422;6.794;2024-02-16T08:48:35;6.47;;;2.67;;
8626;SDS011;4351;51.422;6.794;2024-02-16T08:51:03;4.87;;;2.40;;
8626;SDS011;4351;51.422;6.794;2024-02-16T08:53:32;6.63;;;2.43;;
8626;SDS011;4351;51.422;6.794;2024-02-16T08:56:00;4.70;;;2.30;;
8626;SDS011;4351;51.422;6.794;2024-02-16T08:58:28;7.10;;;2.83;;
8626;SDS011;4351;51.422;6.794;2024-02-16T09:00:57;6.80;;;2.63;;
8626;SDS011;4351;51.422;6.794;2024-02-16T09:03:25;5.33;;;2.43;;
8626;SDS011;4351;51.422;6.794;2024-02-16T09:05:53;6.70;;;2.77;;
8626;SDS011;4351;51.422;6.794;2024-02-16T09:08:21;5.87;;;2.60;;
8626;SDS011;4351;51.422;6.794;2024-02-16T09:10:49;6.97;;;2.90;;
8626;SDS011;4351;51.422;6.794;2024-02-16T09:13:17;4.67;;;2.40;;
8626;SDS011;4351;51.422;6.794;2024-02-16T09:16:01;6.47;;;2.60;;
8626;SDS011;4351;51.422;6.794;2024-02-16T09:18:29;5.10;;;2.70;;
8626;SDS011;4351;51.422;6.794;2024-02-16T09:20:57;8.27;;;2.47;;
8626;SDS011;4351;51.422;6.794;2024-02-16T09:23:25;5.50;;;2.63;;
8626;SDS011;4351;51.422;6.794;2024-02-16T09:25:54;7.20;;;2.67;;
8626;SDS011;4351;51.422;6.794;2024-02-16T09:28:22;8.10;;;2.87;;
8626;SDS011;4351;51.422;6.794;2024-02-16T09:30:56;6.60;;;2.90;;
8626;SDS011;4351;51.422;6.794;2024-02-16T09:33:25;5.57;;;2.53;;
8626;SDS011;4351;51.422;6.794;2024-02-16T09:35:54;9.00;;;2.67;;
8626;SDS011;4351;51.422;6.794;2024-02-16T09:38:22;4.50;;;2.70;;
8626;SDS011;4351;51.422;6.794;2024-02-16T09:40:50;6.77;;;2.90;;
8626;SDS011;4351;51.422;6.794;2024-02-16T09:43:24;6.93;;;2.83;;
8626;SDS011;4351;51.422;6.794;2024-02-16T09:45:53;7.60;;;3.07;;
8626;SDS011;4351;51.422;6.794;2024-02-16T09:48:21;7.33;;;2.83;;
8626;SDS011;4351;51.422;6.794;2024-02-16T09:50:51;5.30;;;2.77;;
8626;SDS011;4351;51.422;6.794;2024-02-16T09:53:20;5.93;;;2.80;;
8626;SDS011;4351;51.422;6.794;2024-02-16T09:55:50;7.70;;;3.00;;
8626;SDS011;4351;51.422;6.794;2024-02-16T09:58:19;6.73;;;2.90;;
8626;SDS011;4351;51.422;6.794;2024-02-16T10:00:50;6.67;;;2.87;;
8626;SDS011;4351;51.422;6.794;2024-02-16T10:03:28;9.03;;;3.10;;
8626;SDS011;4351;51.422;6.794;2024-02-16T10:06:07;5.20;;;2.77;;
8626;SDS011;4351;51.422;6.794;2024-02-16T10:08:46;6.87;;;2.80;;
8626;SDS011;4351;51.422;6.794;2024-02-16T10:11:15;6.90;;;2.90;;
8626;SDS011;4351;51.422;6.794;2024-02-16T10:13:42;4.63;;;2.73;;
8626;SDS011;4351;51.422;6.794;2024-02-16T10:16:10;9.50;;;2.77;;
8626;SDS011;4351;51.422;6.794;2024-02-16T10:18:38;6.30;;;3.17;;
8626;SDS011;4351;51.422;6.794;2024-02-16T10:21:08;4.17;;;2.60;;
8626;SDS011;4351;51.422;6.794;2024-02-16T10:23:35;8.77;;;3.30;;
8626;SDS011;4351;51.422;6.794;2024-02-16T10:26:06;6.27;;;3.17;;
8626;SDS011;4351;51.422;6.794;2024-02-16T10:28:34;10.40;;;2.97;;
8626;SDS011;4351;51.422;6.794;2024-02-16T10:31:01;5.47;;;2.80;;
8626;SDS011;4351;51.422;6.794;2024-02-16T10:33:30;8.30;;;3.20;;
8626;SDS011;4351;51.422;6.794;2024-02-16T10:36:00;7.83;;;3.20;;
8626;SDS011;4351;51.422;6.794;2024-02-16T10:38:30;8.07;;;3.10;;
8626;SDS011;4351;51.422;6.794;2024-02-16T10:40:58;6.20;;;2.90;;
8626;SDS011;4351;51.422;6.794;2024-02-16T10:43:27;7.53;;;2.90;;
8626;SDS011;4351;51.422;6.794;2024-02-16T10:45:56;10.47;;;2.97;;
8626;SDS011;4351;51.422;6.794;2024-02-16T10:48:24;5.50;;;2.90;;
8626;SDS011;4351;51.422;6.794;2024-02-16T10:50:52;6.33;;;3.00;;
8626;SDS011;4351;51.422;6.794;2024-02-16T10:53:22;8.47;;;3.40;;
8626;SDS011;4351;51.422;6.794;2024-02-16T10:55:53;6.27;;;2.93;;
8626;SDS011;4351;51.422;6.794;2024-02-16T10:58:20;10.10;;;3.20;;
8626;SDS011;4351;51.422;6.794;2024-02-16T11:00:51;7.30;;;3.10;;
8626;SDS011;4351;51.422;6.794;2024-02-16T11:03:23;6.17;;;3.23;;
8626;SDS011;4351;51.422;6.794;2024-02-16T11:05:52;7.53;;;3.30;;
8626;SDS011;4351;51.422;6.794;2024-02-16T11:08:21;8.47;;;4.70;;
8626;SDS011;4351;51.422;6.794;2024-02-16T11:10:55;6.27;;;3.40;;
8626;SDS011;4351;51.422;6.794;2024-02-16T11:13:23;8.70;;;3.37;;
8626;SDS011;4351;51.422;6.794;2024-02-16T11:15:58;10.63;;;3.80;;
8626;SDS011;4351;51.422;6.794;2024-02-16T11:18:27;8.23;;;3.80;;
8626;SDS011;4351;51.422;6.794;2024-02-16T11:20:55;8.50;;;3.90;;
8626;SDS011;4351;51.422;6.794;2024-02-16T11:23:27;11.40;;;3.87;;
8626;SDS011;4351;51.422;6.794;2024-02-16T11:26:00;9.80;;;3.80;;
8626;SDS011;4351;51.422;6.794;2024-02-16T11:28:31;13.93;;;5.50;;
8626;SDS011;4351;51.422;6.794;2024-02-16T11:30:59;10.93;;;4.33;;
8626;SDS011;4351;51.422;6.794;2024-02-16T11:33:27;8.03;;;4.90;;
8626;SDS011;4351;51.422;6.794;2024-02-16T11:35:56;8.50;;;4.83;;
8626;SDS011;4351;51.422;6.794;2024-02-16T11:38:24;13.47;;;5.87;;
8626;SDS011;4351;51.422;6.794;2024-02-16T11:40:53;12.83;;;5.40;;
8626;SDS011;4351;51.422;6.794;2024-02-16T11:43:22;12.13;;;5.07;;
8626;SDS011;4351;51.422;6.794;2024-02-16T11:45:50;10.73;;;4.77;;
8626;SDS011;4351;51.422;6.794;2024-02-16T11:48:21;11.27;;;4.63;;
8626;SDS011;4351;51.422;6.794;2024-02-16T11:51:01;11.13;;;5.07;;
8626;SDS011;4351;51.422;6.794;2024-02-16T11:53:29;14.27;;;6.20;;
8626;SDS011;4351;51.422;6.794;2024-02-16T11:55:57;14.67;;;5.67;;
8626;SDS011;4351;51.422;6.794;2024-02-16T11:58:27;12.97;;;5.73;;
8626;SDS011;4351;51.422;6.794;2024-02-16T12:00:55;11.80;;;4.57;;
8626;SDS011;4351;51.422;6.794;2024-02-16T12:03:29;10.60;;;4.80;;
8626;SDS011;4351;51.422;6.794;2024-02-16T12:05:58;14.33;;;4.93;;
8626;SDS011;4351;51.422;6.794;2024-02-16T12:08:31;8.10;;;4.17;;
8626;SDS011;4351;51.422;6.794;2024-02-16T12:10:59;10.33;;;4.47;;
8626;SDS011;4351;51.422;6.794;2024-02-16T12:13:29;9.23;;;4.00;;
8626;SDS011;4351;51.422;6.794;2024-02-16T12:15:57;9.83;;;4.40;;
8626;SDS011;4351;51.422;6.794;2024-02-16T12:18:25;9.10;;;4.57;;
8626;SDS011;4351;51.422;6.794;2024-02-16T12:20:57;11.90;;;4.37;;
8626;SDS011;4351;51.422;6.794;2024-02-16T12:23:24;16.43;;;4.40;;
8626;SDS011;4351;51.422;6.794;2024-02-16T12:25:52;11.93;;;4.70;;
8626;SDS011;4351;51.422;6.794;2024-02-16T12:28:23;13.27;;;5.23;;
8626;SDS011;4351;51.422;6.794;2024-02-16T12:30:52;12.37;;;5.10;;
8626;SDS011;4351;51.422;6.794;2024-02-16T12:33:20;11.63;;;4.97;;
8626;SDS011;4351;51.422;6.794;2024-02-16T12:35:48;13.13;;;5.53;;
8626;SDS011;4351;51.422;6.794;2024-02-16T12:38:16;12.10;;;4.90;;
8626;SDS011;4351;51.422;6.794;2024-02-16T12:40:45;12.07;;;5.20;;
8626;SDS011;4351;51.422;6.794;2024-02-16T12:43:13;14.37;;;5.37;;
8626;SDS011;4351;51.422;6.794;2024-02-16T12:45:41;11.83;;;5.50;;
8626;SDS011;4351;51.422;6.794;2024-02-16T12:48:10;13.00;;;5.80;;
8626;SDS011;4351;51.422;6.794;2024-02-16T12:50:40;14.30;;;5.47;;
8626;SDS011;4351;51.422;6.794;2024-02-16T12:53:09;13.87;;;6.47;;
8626;SDS011;4351;51.422;6.794;2024-02-16T12:55:37;12.43;;;6.20;;
8626;SDS011;4351;51.422;6.794;2024-02-16T12:58:04;10.17;;;5.43;;
8626;SDS011;4351;51.422;6.794;2024-02-16T13:00:32;14.63;;;6.00;;
8626;SDS011;4351;51.422;6.794;2024-02-16T13:03:00;8.53;;;5.57;;
8626;SDS011;4351;51.422;6.794;2024-02-16T13:05:28;10.63;;;5.20;;
8626;SDS011;4351;51.422;6.794;2024-02-16T13:07:58;10.97;;;5.77;;
8626;SDS011;4351;51.422;6.794;2024-02-16T13:10:26;8.47;;;5.73;;
8626;SDS011;4351;51.422;6.794;2024-02-16T13:12:54;12.67;;;6.17;;
8626;SDS011;4351;51.422;6.794;2024-02-16T13:15:21;10.27;;;5.87;;
8626;SDS011;4351;51.422;6.794;2024-02-16T13:17:54;9.43;;;6.10;;
8626;SDS011;4351;51.422;6.794;2024-02-16T13:20:23;12.93;;;5.87;;
8626;SDS011;4351;51.422;6.794;2024-02-16T13:22:52;10.07;;;5.53;;
8626;SDS011;4351;51.422;6.794;2024-02-16T13:25:20;13.90;;;6.17;;
8626;SDS011;4351;51.422;6.794;2024-02-16T13:27:48;14.10;;;6.17;;
8626;SDS011;4351;51.422;6.794;2024-02-16T13:30:16;10.27;;;5.97;;
8626;SDS011;4351;51.422;6.794;2024-02-16T13:32:44;12.10;;;5.93;;
8626;SDS011;4351;51.422;6.794;2024-02-16T13:35:11;11.60;;;6.73;;
8626;SDS011;4351;51.422;6.794;2024-02-16T13:37:40;15.83;;;7.03;;
8626;SDS011;4351;51.422;6.794;2024-02-16T13:40:10;16.67;;;7.13;;
8626;SDS011;4351;51.422;6.794;2024-02-16T13:42:38;13.27;;;6.73;;
8626;SDS011;4351;51.422;6.794;2024-02-16T13:45:07;15.13;;;7.90;;
8626;SDS011;4351;51.422;6.794;2024-02-16T13:47:35;17.53;;;8.23;;
8626;SDS011;4351;51.422;6.794;2024-02-16T13:50:02;13.27;;;7.00;;
8626;SDS011;4351;51.422;6.794;2024-02-16T13:52:31;13.33;;;7.50;;
8626;SDS011;4351;51.422;6.794;2024-02-16T13:54:58;15.87;;;6.90;;
8626;SDS011;4351;51.422;6.794;2024-02-16T13:57:27;19.10;;;7.90;;
8626;SDS011;4351;51.422;6.794;2024-02-16T13:59:55;14.80;;;7.67;;
8626;SDS011;4351;51.422;6.794;2024-02-16T14:02:23;14.03;;;7.10;;
8626;SDS011;4351;51.422;6.794;2024-02-16T14:04:50;12.63;;;7.03;;
8626;SDS011;4351;51.422;6.794;2024-02-16T14:07:18;11.07;;;7.17;;
8626;SDS011;4351;51.422;6.794;2024-02-16T14:09:46;14.83;;;7.43;;
8626;SDS011;4351;51.422;6.794;2024-02-16T14:12:14;13.17;;;7.30;;
8626;SDS011;4351;51.422;6.794;2024-02-16T14:14:43;14.67;;;7.47;;
8626;SDS011;4351;51.422;6.794;2024-02-16T14:17:11;15.93;;;8.23;;
8626;SDS011;4351;51.422;6.794;2024-02-16T14:19:39;13.67;;;7.47;;
8626;SDS011;4351;51.422;6.794;2024-02-16T14:22:07;13.37;;;8.90;;
8626;SDS011;4351;51.422;6.794;2024-02-16T14:24:37;16.60;;;9.63;;
8626;SDS011;4351;51.422;6.794;2024-02-16T14:27:05;11.77;;;8.20;;
8626;SDS011;4351;51.422;6.794;2024-02-16T14:29:33;14.27;;;8.20;;
8626;SDS011;4351;51.422;6.794;2024-02-16T14:32:02;11.40;;;8.00;;
8626;SDS011;4351;51.422;6.794;2024-02-16T14:34:30;15.03;;;9.17;;
8626;SDS011;4351;51.422;6.794;2024-02-16T14:36:58;10.57;;;7.60;;
8626;SDS011;4351;51.422;6.794;2024-02-16T14:39:26;12.30;;;9.20;;
8626;SDS011;4351;51.422;6.794;2024-02-16T14:41:53;13.13;;;10.47;;
8626;SDS011;4351;51.422;6.794;2024-02-16T14:44:21;11.07;;;6.97;;
8626;SDS011;4351;51.422;6.794;2024-02-16T14:46:49;10.23;;;7.00;;
8626;SDS011;4351;51.422;6.794;2024-02-16T14:49:19;8.13;;;6.67;;
8626;SDS011;4351;51.422;6.794;2024-02-16T14:51:48;8.50;;;6.40;;
8626;SDS011;4351;51.422;6.794;2024-02-16T14:54:17;8.63;;;6.97;;
8626;SDS011;4351;51.422;6.794;2024-02-16T14:56:45;10.17;;;7.47;;
8626;SDS011;4351;51.422;6.794;2024-02-16T14:59:13;7.87;;;6.13;;
8626;SDS011;4351;51.422;6.794;2024-02-16T15:01:40;8.67;;;5.73;;
8626;SDS011;4351;51.422;6.794;2024-02-16T15:04:08;9.07;;;6.17;;
8626;SDS011;4351;51.422;6.794;2024-02-16T15:06:37;11.33;;;6.40;;
8626;SDS011;4351;51.422;6.794;2024-02-16T15:09:05;8.47;;;6.60;;
8626;SDS011;4351;51.422;6.794;2024-02-16T15:11:33;10.63;;;6.50;;
8626;SDS011;4351;51.422;6.794;2024-02-16T15:14:01;7.93;;;6.53;;
8626;SDS011;4351;51.422;6.794;2024-02-16T15:16:29;8.20;;;6.00;;
8626;SDS011;4351;51.422;6.794;2024-02-16T15:18:56;9.43;;;6.17;;
8626;SDS011;4351;51.422;6.794;2024-02-16T15:21:24;8.23;;;6.03;;